NCAR-RAP Real-Time Weather Data

Output produced by METARs form (20 February 2019  17:27 UTC)
found at http://weather.rap.ucar.edu/surface/
 
RJBB 201700Z AUTO 33012KT 9999 FEW040 OVC050 09/03 Q1021 NOSIG
RJBB 201630Z AUTO 33013KT 9999 FEW050 OVC060 09/03 Q1021 NOSIG
RJBB 201600Z AUTO 33017KT 9999 FEW049 BKN050 OVC060 09/02 Q1021 NOSIG
RJBB 201530Z AUTO 32019KT 9999 OVC050 09/03 Q1021 BECMG 33018KT
RJBB 201500Z AUTO 31019KT 9999 OVC050 09/02 Q1021 NOSIG
RJBB 201430Z AUTO 31020KT 9999 OVC050 10/02 Q1021 NOSIG
RJBB 201400Z AUTO 30022KT 9999 SCT050 10/02 Q1020 NOSIG
RJBB 201330Z 31023KT 9999 FEW020 10/02 Q1020 NOSIG
RJBB 201300Z 31015KT 9999 FEW020 10/03 Q1020 NOSIG
RJBB 201230Z 31017KT 9999 FEW020 10/03 Q1020 NOSIG
RJBB 201200Z 30019KT 9999 FEW020 11/03 Q1020 NOSIG
RJBB 201130Z 31022KT 9999 FEW020 11/03 Q1020 BECMG 34021KT
RJBB 201100Z 31022KT 9999 FEW020 SCT070 11/03 Q1019 BECMG 34021KT
RJBB 201030Z 31021KT 9999 FEW020 12/04 Q1019 BECMG 35020KT
RJBB 201000Z 30020KT 9999 FEW020 SCT070 12/05 Q1018 BECMG 35020KT
RJBB 200930Z 28017KT 9999 FEW020 12/07 Q1018 BECMG 34015KT
RJBB 200900Z 27017KT 9999 FEW020 SCT045 12/07 Q1017 NOSIG
RJBB 200830Z 27016KT 9999 FEW020 SCT045 13/08 Q1017 NOSIG
RJBB 200800Z 26016KT 9999 FEW020 SCT070 13/08 Q1017 NOSIG
RJBB 200730Z 26016KT 9999 FEW020 SCT070 13/07 Q1016 NOSIG
RJBB 200700Z 26016KT 9999 FEW020 SCT045 14/08 Q1016 NOSIG
RJBB 200630Z 26014KT 9999 FEW020 BKN060 15/08 Q1016 NOSIG
RJBB 200600Z 26011KT 9999 FEW020 SCT060 15/10 Q1016 NOSIG
RJBB 200530Z 25010KT 9999 FEW020 SCT060 15/10 Q1016 NOSIG
RJBB 200500Z 25009KT 9999 FEW020 15/09 Q1016 NOSIG
RJBB 200430Z 27013KT 9999 FEW020 15/10 Q1016 NOSIG
RJBB 200400Z 25011KT 9999 FEW020 15/10 Q1016 NOSIG
RJBB 200330Z 26013KT 9999 FEW015 SCT060 14/10 Q1016 NOSIG
RJBB 200300Z 26014KT 9999 FEW015 SCT060 14/10 Q1016 NOSIG
RJBB 200230Z 26012KT 9999 FEW015 SCT060 15/11 Q1016 NOSIG
RJBB 200200Z 27013KT 9999 FEW015 BKN060 14/11 Q1017 NOSIG
RJBB 200130Z 25009KT 220V280 9999 FEW010 BKN020 BKN060 13/11 Q1017 NOSIG
RJBB 200100Z 21005KT 9999 FEW015 BKN025 BKN060 12/11 Q1017 NOSIG
RJBB 200030Z 24004KT 9999 FEW015 SCT025 BKN060 13/11 Q1016 NOSIG
RJBB 200000Z 29005KT 9999 FEW020 BKN030 BKN060 13/11 Q1017 NOSIG
RJBB 192330Z 30007KT 9999 FEW015 SCT030 BKN060 12/11 Q1017 NOSIG
RJBB 192300Z 29004KT 9999 FEW015 SCT030 BKN060 13/11 Q1016 NOSIG
RJBB 192230Z 30004KT 250V010 9999 FEW015 SCT030 BKN045 13/11 Q1016 NOSIG
RJBB 192200Z 33004KT 280V020 9999 FEW015 BKN035 BKN060 13/11 Q1016 BECMG 27007KT
RJBB 192130Z VRB02KT 9999 FEW015 SCT040 BKN060 13/12 Q1015 BECMG 27007KT
RJBB 192100Z VRB02KT 9999 FEW015 BKN060 13/11 Q1015 NOSIG
RJBB 192030Z AUTO 22004KT 200V260 6000 FEW010 BKN050 OVC060 12/11 Q1015 TEMPO TL2100 4000 BR
RJBB 192000Z AUTO 26009KT 9000 FEW047 BKN050 OVC060 13/11 Q1015 TEMPO TL2100 4000 BR
RJBB 191948Z AUTO 25006KT 8000 FEW047 BKN050 OVC060 12/11 Q1014 RMK A2997
RJBB 191930Z AUTO 30016KT 6000 FEW036 BKN050 OVC060 12/11 Q1015 TEMPO TL2100 4000 BR
RJBB 191924Z AUTO 29015KT 6000 FEW036 BKN050 OVC060 12/11 Q1015 RMK A2998
RJBB 191900Z AUTO 30016KT 4900 BR BKN050 OVC060 12/11 Q1015 NOSIG
RJBB 191841Z AUTO 31016KT 4100 BR FEW007 BKN050 OVC060 13/12 Q1015 RMK A2997
RJBB 191830Z AUTO 28014KT 5000 BR FEW007 BKN047 OVC050 13/11 Q1015 TEMPO 4000 BR
RJBB 191800Z AUTO 27013KT 5000 BR BKN049 OVC050 12/11 Q1016 TEMPO 4000 BR
RJBB 191735Z AUTO 28011KT 4600 BR OVC050 12/12 Q1016 RMK A3000
RJBB 191730Z AUTO 28011KT 5000 BR BKN050 OVC060 12/11 Q1016 TEMPO 4000 BR
RJBB 191700Z AUTO 27012KT 4500 BR BKN049 BKN050 OVC060 12/12 Q1016 NOSIG
RJBB 191630Z AUTO 25008KT 6000 FEW048 BKN050 OVC060 12/12 Q1016 TEMPO 4000 BR
RJBB 191600Z AUTO 21006KT 170V240 7000 FEW044 SCT049 OVC050 12/12 Q1016 TEMPO 4000 BR
RJBB 191551Z AUTO 19006KT 4600 BR FEW009 SCT044 BKN048 11/11 Q1016 RMK A3000
RJBB 191549Z AUTO 19006KT 6000 FEW009 BKN044 OVC050 11/11 Q1015 RMK A3000
RJBB 191538Z AUTO 17005KT 080V200 3800 BR FEW009 SCT042 BKN044 11/11 Q1015 RMK A3000
RJBB 191536Z AUTO 17005KT 080V200 6000 FEW009 BKN042 OVC050 11/11 Q1015 RMK A3000
RJBB 191530Z AUTO 15005KT 090V180 4800 BR FEW009 BKN041 OVC050 11/11 Q1015 NOSIG
RJBB 191506Z AUTO 15006KT 100V170 4600 BR FEW003 SCT017 BKN050 11/11 Q1015 RMK A2999
RJBB 191500Z AUTO 15007KT 4200 BR BKN003 11/11 Q1015 BECMG FEW003 BKN007 BKN015
RJBB 191440Z AUTO 15004KT 4700 BR FEW003 SCT005 BKN027 11/11 Q1015 RMK A2999
RJBB 191435Z AUTO 15004KT 6000 SCT003 BKN005 BKN020 11/10 Q1015 RMK A2999
RJBB 191430Z AUTO 16004KT 4900 BR BKN003 BKN015 BKN020 11/11 Q1015 BECMG FEW003 BKN007 BKN015
RJBB 191421Z AUTO VRB02KT 5000 BR BKN003 OVC005 11/11 Q1015 RMK A2999
RJBB 191400Z AUTO 31003KT 4500 BR BKN005 OVC007 11/11 Q1015 NOSIG
RJBB 191330Z 19004KT 8000 FEW002 SCT005 BKN025 11/11 Q1015 NOSIG
RJBB 191313Z 16005KT 9000 FEW003 SCT006 BKN035 11/11 Q1014 RMK 1ST003 4ST006 6CU035 A2996
RJBB 191300Z 11003KT 060V180 9000 FEW003 SCT006 BKN012 11/10 Q1014 BECMG FEW005 SCT015 BKN020
RJBB 191230Z 06004KT 030V100 7000 FEW003 SCT006 BKN012 11/10 Q1013 BECMG FEW008 SCT015 BKN020
RJBB 191213Z 06006KT 8000 FEW005 SCT008 BKN012 11/10 Q1013 RMK 1ST005 3ST008 5CU012 A2994
RJBB 191200Z 05005KT 8000 FEW005 SCT008 BKN015 11/10 Q1013 NOSIG
RJBB 191130Z 07006KT 9999 FEW010 BKN015 11/10 Q1013 NOSIG
RJBB 191100Z 07005KT 9999 FEW010 SCT015 11/10 Q1013 NOSIG
RJBB 191030Z 05007KT 9999 FEW010 BKN020 11/10 Q1013 NOSIG
RJBB 191000Z 03011KT 9999 FEW010 BKN020 11/10 Q1013 NOSIG
RJBB 190930Z 03010KT 9999 FEW008 SCT020 11/10 Q1012 NOSIG
RJBB 190900Z 03012KT 8000 FEW005 SCT020 BKN/// 11/10 Q1012 NOSIG
RJBB 190830Z 03012KT 7000 FEW003 SCT030 BKN060 11/11 Q1012 WS R06R TEMPO FEW005 BKN008 BKN015
RJBB 190800Z 04010KT 6000 -SHRA BR FEW002 SCT025 BKN040 11/11 Q1012 TEMPO FEW005 BKN008 BKN015
RJBB 190739Z 05007KT 5000 -SHRA BR FEW002 SCT025 BKN060 11/11 Q1012 RMK 1ST002 3CU025 5SC060 A2991 P/FR
RJBB 190730Z 11015KT 4500 -SHRA BR FEW002 SCT025 BKN100 10/10 Q1012 TEMPO FEW005 BKN008 BKN015
RJBB 190716Z 10016KT 3500 R06R/2000U R06L/P2000N SHRA BR FEW002 SCT025 BKN070 10/10 Q1012 RMK 1ST002 3CU025 7AC070 A2989 P/FR
RJBB 190700Z 08012KT 2000 R06R/1100V1800D R06L/1100VP2000U +SHRA BR FEW002 SCT015 BKN025 10/10 Q1014 TEMPO FEW005 BKN008 BKN015
RJBB 190647Z 05011KT 3000 R06R/1300VP2000D R06L/2000N +SHRA BR FEW002 SCT020 BKN030 10/10 Q1015 RMK 1ST002 3CU020 6CU030 A2997
RJBB 190630Z 06013KT 3500 R06R/2000N R06L/P2000N SHRA BR FEW002 SCT030 BKN040 10/09 Q1014 TEMPO 3000 SHRA BR FEW005 BKN008 BKN015
RJBB 190617Z 04014KT 3500 R06R/2000D R06L/P2000N SHRA BR FEW002 SCT030 BKN040 10/09 Q1014 RMK 1ST002 3CU030 6CU040 A2997
RJBB 190600Z 04014KT 4500 -RA BR FEW002 BKN050 OVC100 10/09 Q1014 TEMPO 3000 SHRA BR FEW005 BKN008 BKN015
RJBB 190546Z 05012KT 4500 -RA BR FEW002 BKN050 OVC100 10/09 Q1014 RMK 1ST002 6SC050 8AS100 A2997
RJBB 190530Z 06010KT 5000 -RA BR FEW002 BKN070 OVC100 10/09 Q1015 TEMPO 4000 -SHRA BR
RJBB 190500Z 05010KT 7000 -RA FEW002 BKN050 BKN100 10/09 Q1016 TEMPO 4000 -SHRA BR
RJBB 190430Z 06012KT 7000 -RA FEW002 BKN035 OVC090 10/09 Q1016 TEMPO 4000 -SHRA BR
RJBB 190400Z 06013KT 6000 VCSH BR FEW002 BKN035 OVC090 10/09 Q1017 NOSIG
RJBB 190330Z 05016KT 6000 -RA BR FEW002 BKN035 BKN050 09/08 Q1018 NOSIG
RJBB 190300Z 03013KT 6000 -RA BR FEW002 SCT025 BKN050 09/08 Q1019 NOSIG
RJBB 190245Z 05010KT 6000 -RA BR FEW002 BKN025 BKN050 09/08 Q1019 RMK 1ST002 5CU025 6SC050 A3011
RJBB 190230Z 07008KT 4500 R06R/P2000N R06L/P2000N -RA BR FEW002 SCT030 BKN050 09/08 Q1019 NOSIG
RJBB 190209Z 05011KT 4500 -RA BR FEW002 BKN030 BKN050 09/08 Q1019 RMK 1ST002 5CU030 6SC050 A3011
RJBB 190200Z 05010KT 7000 -RA FEW004 BKN030 BKN060 09/08 Q1020 WS R06L NOSIG
RJBB 190130Z 07011KT 8000 -RA FEW004 SCT030 BKN060 08/07 Q1020 NOSIG
RJBB 190100Z 07011KT 8000 -RA FEW004 SCT035 BKN050 08/06 Q1021 TEMPO 4000 RA BR
RJBB 190030Z 07012KT 8000 -RA FEW004 BKN035 BKN060 08/06 Q1021 TEMPO 4000 RA BR
RJBB 190000Z 07013KT 7000 -RA BR FEW004 BKN030 BKN050 07/06 Q1022 TEMPO 4000 RA BR
RJBB 182330Z 07012KT 7000 -RA BR FEW005 BKN030 BKN050 07/05 Q1022 TEMPO 4000 RA BR
RJBB 182300Z 07011KT 7000 -RA BR FEW005 BKN030 BKN050 07/05 Q1023 TEMPO 4000 RA BR
RJBB 182230Z 08012KT 7000 -RA BR FEW020 BKN030 BKN050 07/05 Q1023 TEMPO RA
RJBB 182220Z 07011KT 7000 -RA BR FEW020 SCT030 BKN050 07/05 Q1023 RMK 1CU020 4CU030 7SC050 A3021
RJBB 182200Z 07011KT 7000 RA BR FEW020 SCT040 BKN050 08/05 Q1023 NOSIG
RJBB 182130Z 06012KT 7000 -RA BR FEW020 SCT045 BKN060 08/05 Q1023 NOSIG
RJBB 182100Z 07010KT 9999 -RA FEW030 BKN050 OVC070 08/05 Q1023 NOSIG
RJBB 182030Z AUTO 06011KT 9999 -RA SCT050 OVC060 08/04 Q1024 NOSIG
RJBB 182000Z AUTO 06009KT 8000 -RA FEW035 BKN060 OVC070 08/04 Q1024 NOSIG
RJBB 181930Z AUTO 06008KT 8000 -RA FEW036 SCT060 BKN070 08/04 Q1023 NOSIG
RJBB 181900Z AUTO 07007KT 9999 -RA FEW035 BKN070 OVC080 09/03 Q1023 NOSIG
RJBB 181830Z AUTO 07006KT 9999 FEW039 BKN070 OVC090 09/03 Q1024 NOSIG
RJBB 181800Z AUTO 07006KT 9999 NSC 09/03 Q1024 NOSIG
RJBB 181730Z AUTO 08005KT 9000 NSC 09/04 Q1024 NOSIG
RJBB 181700Z AUTO 07005KT 9999 NSC 09/04 Q1024 NOSIG
RJBB 181630Z AUTO 07006KT 9999 NSC 09/04 Q1024 NOSIG
RJBB 181600Z AUTO 07004KT 9999 NSC 09/04 Q1025 NOSIG
RJBB 181530Z AUTO 08002KT 9999 NSC 09/03 Q1025 NOSIG
RJBB 181500Z AUTO 15001KT 9999 NSC 09/03 Q1025 NOSIG
RJBB 181430Z AUTO 10002KT 9999 NSC 09/04 Q1026 NOSIG
RJBB 181400Z AUTO VRB01KT 9999 NSC 09/03 Q1026 NOSIG
RJBB 181330Z 14002KT CAVOK 09/04 Q1026 NOSIG
RJBB 181300Z 19003KT CAVOK 09/03 Q1027 NOSIG
RJBB 181230Z 17004KT 060V210 CAVOK 08/04 Q1026 NOSIG
RJBB 181200Z 16003KT CAVOK 09/04 Q1026 NOSIG
RJBB 181130Z 16003KT CAVOK 09/04 Q1026 NOSIG
RJBB 181100Z VRB02KT CAVOK 09/04 Q1026 NOSIG
RJBB 181030Z VRB01KT CAVOK 10/01 Q1026 NOSIG
RJBB 181000Z VRB02KT CAVOK 09/01 Q1025 NOSIG
RJBB 180930Z 32004KT CAVOK 10/01 Q1025 NOSIG
RJBB 180900Z 33004KT 9999 FEW030 BKN/// 09/01 Q1025 BECMG 24005KT
RJBB 180830Z 34004KT 9999 FEW030 BKN/// 10/01 Q1024 BECMG 24005KT
RJBB 180800Z 36006KT 9999 FEW030 BKN/// 10/M00 Q1024 NOSIG
RJBB 180730Z 36007KT 9999 FEW030 BKN/// 10/M00 Q1024 NOSIG
RJBB 180700Z 36007KT 9999 FEW030 BKN/// 11/M01 Q1025 NOSIG
RJBB 180630Z 36007KT 9999 FEW030 BKN/// 11/M00 Q1025 NOSIG
RJBB 180600Z 35008KT 9999 FEW040 BKN/// 11/M01 Q1025 NOSIG
RJBB 180530Z 35006KT 9999 FEW030 BKN/// 11/M00 Q1025 NOSIG